DAL9328 KPDX-KGEG
Flight info
| Callsign | DAL9328 |
|---|---|
| Flight time | 0h 51m |
| Altitude | 33000 |
| Route | KYKM ZOOMR ZOOMR2 |
| Aircraft | DAL/M-SDE2E3FGHIRWXY/LB1 |
Departure
| Time | 2026-04-22 21:56 |
|---|---|
| Airport | Portland International Airport (KPDX) |
Arrival
| Time | 2026-04-22 22:47 |
|---|---|
| Airport | Spokane International Airport (KGEG) |
| Time | Latitude | Longitude | Altitude | Speed | Heading |
|---|---|---|---|---|---|
| 2026-04-22 21:11 | 45.58965 | -122.59686 | 43 ft | 0 kts | 209° |
| 2026-04-22 21:39 | 45.58964 | -122.59687 | 42 ft | 1 kts | 209° |
| 2026-04-22 21:39 | 45.58962 | -122.59689 | 41 ft | 2 kts | 209° |
| 2026-04-22 21:39 | 45.58968 | -122.59684 | 41 ft | 2 kts | 209° |
| 2026-04-22 21:39 | 45.58982 | -122.59673 | 41 ft | 2 kts | 209° |
| 2026-04-22 21:40 | 45.58995 | -122.59662 | 43 ft | 2 kts | 209° |
| 2026-04-22 21:40 | 45.59007 | -122.59648 | 40 ft | 2 kts | 254° |
| 2026-04-22 21:40 | 45.59007 | -122.59629 | 40 ft | 1 kts | 300° |
| 2026-04-22 21:40 | 45.59012 | -122.59642 | 39 ft | 0 kts | 300° |
| 2026-04-22 21:41 | 45.59017 | -122.59651 | 39 ft | 3 kts | 307° |
| 2026-04-22 21:42 | 45.59038 | -122.59681 | 41 ft | 6 kts | 316° |
| 2026-04-22 21:42 | 45.59052 | -122.59709 | 42 ft | 7 kts | 300° |
| 2026-04-22 21:42 | 45.59053 | -122.59712 | 42 ft | 7 kts | 300° |
| 2026-04-22 21:43 | 45.59084 | -122.59790 | 42 ft | 11 kts | 300° |
| 2026-04-22 21:43 | 45.59128 | -122.59900 | 43 ft | 14 kts | 296° |
| 2026-04-22 21:43 | 45.59141 | -122.60032 | 43 ft | 10 kts | 254° |
| 2026-04-22 21:43 | 45.59109 | -122.60081 | 41 ft | 7 kts | 219° |
| 2026-04-22 21:44 | 45.59059 | -122.60128 | 43 ft | 10 kts | 208° |
| 2026-04-22 21:44 | 45.58988 | -122.60174 | 43 ft | 11 kts | 183° |
| 2026-04-22 21:44 | 45.58934 | -122.60113 | 43 ft | 11 kts | 120° |
| 2026-04-22 21:44 | 45.58890 | -122.60002 | 43 ft | 14 kts | 119° |
| 2026-04-22 21:45 | 45.58835 | -122.59863 | 43 ft | 18 kts | 119° |
| 2026-04-22 21:45 | 45.58771 | -122.59694 | 42 ft | 21 kts | 119° |
| 2026-04-22 21:45 | 45.58696 | -122.59505 | 43 ft | 16 kts | 120° |
| 2026-04-22 21:45 | 45.58664 | -122.59436 | 43 ft | 9 kts | 127° |
| 2026-04-22 21:46 | 45.58616 | -122.59348 | 43 ft | 13 kts | 130° |
| 2026-04-22 21:46 | 45.58549 | -122.59236 | 42 ft | 16 kts | 130° |
| 2026-04-22 21:46 | 45.58471 | -122.59097 | 43 ft | 19 kts | 129° |
| 2026-04-22 21:46 | 45.58393 | -122.58936 | 43 ft | 17 kts | 122° |
| 2026-04-22 21:47 | 45.58343 | -122.58815 | 42 ft | 15 kts | 118° |
| 2026-04-22 21:47 | 45.58291 | -122.58678 | 43 ft | 17 kts | 118° |
| 2026-04-22 21:47 | 45.58234 | -122.58536 | 43 ft | 13 kts | 118° |
| 2026-04-22 21:47 | 45.58218 | -122.58486 | 43 ft | 0 kts | 116° |
| 2026-04-22 21:48 | 45.58217 | -122.58485 | 43 ft | 1 kts | 117° |
| 2026-04-22 21:48 | 45.58207 | -122.58458 | 43 ft | 5 kts | 117° |
| 2026-04-22 21:49 | 45.58184 | -122.58394 | 41 ft | 9 kts | 119° |
| 2026-04-22 21:49 | 45.58146 | -122.58363 | 42 ft | 0 kts | 166° |
| 2026-04-22 21:53 | 45.58128 | -122.58362 | 40 ft | 4 kts | 186° |
| 2026-04-22 21:54 | 45.58090 | -122.58393 | 42 ft | 8 kts | 230° |
| 2026-04-22 21:54 | 45.58077 | -122.58472 | 40 ft | 9 kts | 299° |
| 2026-04-22 21:54 | 45.58094 | -122.58503 | 44 ft | 0 kts | 298° |
| 2026-04-22 21:55 | 45.58294 | -122.59024 | 44 ft | 114 kts | 302° |
| 2026-04-22 21:55 | 45.58787 | -122.60247 | 129 ft | 195 kts | 296° |
| 2026-04-22 21:55 | 45.59555 | -122.62034 | 589 ft | 227 kts | 299° |
| 2026-04-22 21:56 | 45.60673 | -122.63754 | 1538 ft | 236 kts | 325° |
| 2026-04-22 21:56 | 45.62229 | -122.64345 | 3105 ft | 237 kts | 354° |
| 2026-04-22 21:56 | 45.63768 | -122.63629 | 4550 ft | 237 kts | 33° |
| 2026-04-22 21:56 | 45.64590 | -122.61738 | 6084 ft | 223 kts | 73° |
| 2026-04-22 21:57 | 45.64682 | -122.59543 | 7278 ft | 224 kts | 92° |
| 2026-04-22 21:57 | 45.64477 | -122.57322 | 8358 ft | 227 kts | 93° |
| 2026-04-22 21:57 | 45.64660 | -122.55113 | 9474 ft | 223 kts | 69° |
| 2026-04-22 21:57 | 45.65141 | -122.53821 | 10223 ft | 215 kts | 48° |
| 2026-04-22 21:58 | 45.66014 | -122.52095 | 11345 ft | 213 kts | 48° |
| 2026-04-22 21:58 | 45.66845 | -122.50369 | 12403 ft | 214 kts | 51° |
| 2026-04-22 21:58 | 45.67646 | -122.48571 | 13472 ft | 215 kts | 52° |
| 2026-04-22 21:58 | 45.68435 | -122.46744 | 14452 ft | 216 kts | 52° |
| 2026-04-22 21:59 | 45.69229 | -122.44904 | 15321 ft | 218 kts | 52° |
| 2026-04-22 21:59 | 45.70035 | -122.43058 | 16185 ft | 220 kts | 51° |
| 2026-04-22 21:59 | 45.70856 | -122.41200 | 17039 ft | 221 kts | 51° |
| 2026-04-22 21:59 | 45.71696 | -122.39323 | 17772 ft | 230 kts | 51° |
| 2026-04-22 22:00 | 45.72606 | -122.37315 | 18177 ft | 251 kts | 51° |
| 2026-04-22 22:00 | 45.73610 | -122.35118 | 18350 ft | 275 kts | 52° |
| 2026-04-22 22:00 | 45.74597 | -122.32912 | 19633 ft | 248 kts | 52° |
| 2026-04-22 22:00 | 45.75328 | -122.31244 | 20590 ft | 240 kts | 52° |
| 2026-04-22 22:01 | 45.76229 | -122.29213 | 21296 ft | 244 kts | 52° |
| 2026-04-22 22:01 | 45.77151 | -122.27156 | 21938 ft | 248 kts | 51° |
| 2026-04-22 22:01 | 45.78097 | -122.25053 | 22569 ft | 254 kts | 51° |
| 2026-04-22 22:01 | 45.79059 | -122.22914 | 23233 ft | 258 kts | 51° |
| 2026-04-22 22:02 | 45.80038 | -122.20735 | 23821 ft | 262 kts | 51° |
| 2026-04-22 22:02 | 45.81032 | -122.18514 | 24364 ft | 265 kts | 52° |
| 2026-04-22 22:02 | 45.82028 | -122.16283 | 24894 ft | 266 kts | 52° |
| 2026-04-22 22:02 | 45.83021 | -122.14052 | 24903 ft | 269 kts | 52° |
| 2026-04-22 22:03 | 45.84077 | -122.11698 | 24304 ft | 293 kts | 52° |
| 2026-04-22 22:03 | 45.85215 | -122.09172 | 23599 ft | 316 kts | 52° |
| 2026-04-22 22:03 | 45.86437 | -122.06444 | 22767 ft | 332 kts | 52° |
| 2026-04-22 22:03 | 45.87701 | -122.03605 | 21969 ft | 342 kts | 53° |
| 2026-04-22 22:04 | 45.88984 | -122.00705 | 21208 ft | 346 kts | 53° |
| 2026-04-22 22:04 | 45.90274 | -121.97776 | 20466 ft | 348 kts | 53° |
| 2026-04-22 22:04 | 45.91556 | -121.94857 | 19957 ft | 342 kts | 53° |
| 2026-04-22 22:04 | 45.92807 | -121.91991 | 19535 ft | 336 kts | 53° |
| 2026-04-22 22:05 | 45.94026 | -121.89194 | 19264 ft | 326 kts | 53° |
| 2026-04-22 22:05 | 45.95223 | -121.86471 | 19020 ft | 318 kts | 52° |
| 2026-04-22 22:05 | 45.96399 | -121.83809 | 18782 ft | 312 kts | 52° |
| 2026-04-22 22:05 | 45.97553 | -121.81202 | 18551 ft | 307 kts | 52° |
| 2026-04-22 22:06 | 45.98681 | -121.78653 | 18290 ft | 303 kts | 52° |
| 2026-04-22 22:06 | 45.99807 | -121.76105 | 18011 ft | 300 kts | 52° |
| 2026-04-22 22:06 | 46.00918 | -121.73589 | 17765 ft | 297 kts | 52° |
| 2026-04-22 22:06 | 46.02023 | -121.71081 | 17498 ft | 296 kts | 52° |
| 2026-04-22 22:07 | 46.03120 | -121.68589 | 17224 ft | 294 kts | 52° |
| 2026-04-22 22:07 | 46.04215 | -121.66097 | 16966 ft | 294 kts | 52° |
| 2026-04-22 22:07 | 46.05305 | -121.63611 | 16706 ft | 294 kts | 52° |
| 2026-04-22 22:07 | 46.06397 | -121.61119 | 16437 ft | 293 kts | 52° |
| 2026-04-22 22:08 | 46.07483 | -121.58639 | 16189 ft | 292 kts | 52° |
| 2026-04-22 22:08 | 46.08565 | -121.56161 | 15920 ft | 292 kts | 53° |
| 2026-04-22 22:08 | 46.09647 | -121.53686 | 15667 ft | 291 kts | 52° |
| 2026-04-22 22:08 | 46.10727 | -121.51215 | 15421 ft | 291 kts | 53° |
| 2026-04-22 22:09 | 46.11804 | -121.48744 | 15169 ft | 290 kts | 52° |
| 2026-04-22 22:09 | 46.12877 | -121.46281 | 14930 ft | 290 kts | 53° |
| 2026-04-22 22:09 | 46.13960 | -121.43821 | 14657 ft | 290 kts | 53° |
| 2026-04-22 22:09 | 46.15033 | -121.41363 | 14411 ft | 290 kts | 54° |
| 2026-04-22 22:10 | 46.16110 | -121.38874 | 14186 ft | 294 kts | 54° |
| 2026-04-22 22:10 | 46.17196 | -121.36361 | 13953 ft | 297 kts | 53° |
| 2026-04-22 22:10 | 46.18288 | -121.33835 | 13691 ft | 297 kts | 53° |
| 2026-04-22 22:10 | 46.19351 | -121.31356 | 13419 ft | 279 kts | 53° |
| 2026-04-22 22:11 | 46.20336 | -121.29039 | 13155 ft | 264 kts | 52° |
| 2026-04-22 22:11 | 46.21324 | -121.26748 | 12856 ft | 279 kts | 53° |
| 2026-04-22 22:11 | 46.22409 | -121.24274 | 12575 ft | 304 kts | 51° |
| 2026-04-22 22:11 | 46.23581 | -121.21609 | 12323 ft | 323 kts | 53° |
| 2026-04-22 22:12 | 46.24798 | -121.18804 | 12049 ft | 337 kts | 53° |
| 2026-04-22 22:12 | 46.26036 | -121.15912 | 11818 ft | 348 kts | 52° |
| 2026-04-22 22:12 | 46.27346 | -121.12855 | 11560 ft | 358 kts | 52° |
| 2026-04-22 22:12 | 46.28655 | -121.09808 | 11316 ft | 365 kts | 53° |
| 2026-04-22 22:13 | 46.30003 | -121.06661 | 11060 ft | 371 kts | 53° |
| 2026-04-22 22:13 | 46.31385 | -121.03448 | 10812 ft | 373 kts | 54° |
| 2026-04-22 22:13 | 46.32735 | -121.00305 | 10677 ft | 371 kts | 53° |
| 2026-04-22 22:13 | 46.34024 | -120.97117 | 10901 ft | 362 kts | 56° |
| 2026-04-22 22:14 | 46.35288 | -120.94048 | 11320 ft | 349 kts | 55° |
| 2026-04-22 22:14 | 46.36563 | -120.91065 | 11777 ft | 338 kts | 53° |
| 2026-04-22 22:14 | 46.37795 | -120.88241 | 12021 ft | 337 kts | 53° |
| 2026-04-22 22:14 | 46.39043 | -120.85380 | 12268 ft | 335 kts | 53° |
| 2026-04-22 22:15 | 46.40292 | -120.82500 | 12365 ft | 338 kts | 53° |
| 2026-04-22 22:15 | 46.41533 | -120.79605 | 12560 ft | 339 kts | 54° |
| 2026-04-22 22:15 | 46.42781 | -120.76685 | 12740 ft | 340 kts | 54° |
| 2026-04-22 22:15 | 46.44031 | -120.73750 | 12832 ft | 345 kts | 54° |
| 2026-04-22 22:16 | 46.45298 | -120.70770 | 12972 ft | 348 kts | 54° |
| 2026-04-22 22:16 | 46.46564 | -120.67780 | 13169 ft | 348 kts | 54° |
| 2026-04-22 22:16 | 46.47836 | -120.64771 | 13348 ft | 350 kts | 55° |
| 2026-04-22 22:16 | 46.49109 | -120.61756 | 13540 ft | 350 kts | 55° |
| 2026-04-22 22:17 | 46.50384 | -120.58734 | 13694 ft | 352 kts | 55° |
| 2026-04-22 22:17 | 46.51660 | -120.55705 | 13872 ft | 352 kts | 55° |
| 2026-04-22 22:17 | 46.52932 | -120.52680 | 14167 ft | 347 kts | 54° |
| 2026-04-22 22:17 | 46.54173 | -120.49718 | 14670 ft | 340 kts | 54° |
| 2026-04-22 22:18 | 46.55404 | -120.46783 | 14889 ft | 342 kts | 54° |
| 2026-04-22 22:18 | 46.56656 | -120.43805 | 14935 ft | 348 kts | 52° |
| 2026-04-22 22:18 | 46.57915 | -120.40811 | 14926 ft | 353 kts | 53° |
| 2026-04-22 22:18 | 46.59204 | -120.37741 | 14845 ft | 359 kts | 53° |
| 2026-04-22 22:19 | 46.60531 | -120.34587 | 14438 ft | 372 kts | 54° |
| 2026-04-22 22:19 | 46.61901 | -120.31319 | 13916 ft | 384 kts | 54° |
| 2026-04-22 22:19 | 46.63309 | -120.27955 | 13253 ft | 394 kts | 54° |
| 2026-04-22 22:19 | 46.64733 | -120.24536 | 12832 ft | 394 kts | 53° |
| 2026-04-22 22:20 | 46.66139 | -120.21137 | 12330 ft | 391 kts | 56° |
| 2026-04-22 22:20 | 46.67541 | -120.17742 | 11777 ft | 389 kts | 55° |
| 2026-04-22 22:20 | 46.68942 | -120.14370 | 11385 ft | 388 kts | 54° |
| 2026-04-22 22:20 | 46.70329 | -120.11030 | 11145 ft | 384 kts | 56° |
| 2026-04-22 22:21 | 46.71701 | -120.07702 | 10860 ft | 381 kts | 55° |
| 2026-04-22 22:21 | 46.73063 | -120.04395 | 10530 ft | 380 kts | 54° |
| 2026-04-22 22:21 | 46.74418 | -120.01113 | 10253 ft | 377 kts | 56° |
| 2026-04-22 22:21 | 46.75775 | -119.97842 | 10027 ft | 373 kts | 56° |
| 2026-04-22 22:22 | 46.77104 | -119.94622 | 9867 ft | 367 kts | 54° |
| 2026-04-22 22:22 | 46.78388 | -119.91495 | 9841 ft | 360 kts | 56° |
| 2026-04-22 22:22 | 46.79660 | -119.88388 | 9836 ft | 353 kts | 55° |
| 2026-04-22 22:22 | 46.80907 | -119.85346 | 9839 ft | 348 kts | 55° |
| 2026-04-22 22:23 | 46.82143 | -119.82333 | 9841 ft | 344 kts | 55° |
| 2026-04-22 22:23 | 46.83372 | -119.79343 | 9828 ft | 343 kts | 55° |
| 2026-04-22 22:23 | 46.84595 | -119.76365 | 9828 ft | 341 kts | 56° |
| 2026-04-22 22:23 | 46.85809 | -119.73402 | 9829 ft | 339 kts | 56° |
| 2026-04-22 22:24 | 46.87015 | -119.70456 | 9828 ft | 337 kts | 56° |
| 2026-04-22 22:24 | 46.88217 | -119.67513 | 9828 ft | 336 kts | 56° |
| 2026-04-22 22:24 | 46.89413 | -119.64582 | 9828 ft | 335 kts | 56° |
| 2026-04-22 22:24 | 46.90606 | -119.61651 | 9829 ft | 335 kts | 56° |
| 2026-04-22 22:25 | 46.91796 | -119.58731 | 9827 ft | 333 kts | 55° |
| 2026-04-22 22:25 | 46.92980 | -119.55820 | 9819 ft | 333 kts | 56° |
| 2026-04-22 22:25 | 46.94160 | -119.52909 | 9823 ft | 333 kts | 55° |
| 2026-04-22 22:25 | 46.95345 | -119.49992 | 9819 ft | 333 kts | 56° |
| 2026-04-22 22:26 | 46.96525 | -119.47083 | 9817 ft | 333 kts | 56° |
| 2026-04-22 22:26 | 46.97691 | -119.44200 | 9820 ft | 332 kts | 55° |
| 2026-04-22 22:26 | 46.98867 | -119.41289 | 9812 ft | 332 kts | 55° |
| 2026-04-22 22:26 | 47.00043 | -119.38379 | 9811 ft | 332 kts | 56° |
| 2026-04-22 22:27 | 47.01216 | -119.35473 | 9810 ft | 326 kts | 56° |
| 2026-04-22 22:27 | 47.02337 | -119.32675 | 9808 ft | 311 kts | 56° |
| 2026-04-22 22:27 | 47.03405 | -119.30003 | 9805 ft | 298 kts | 55° |
| 2026-04-22 22:27 | 47.04436 | -119.27425 | 9803 ft | 288 kts | 56° |
| 2026-04-22 22:28 | 47.05436 | -119.24929 | 9805 ft | 279 kts | 55° |
| 2026-04-22 22:28 | 47.06412 | -119.22497 | 9802 ft | 273 kts | 54° |
| 2026-04-22 22:28 | 47.07363 | -119.20133 | 9804 ft | 267 kts | 54° |
| 2026-04-22 22:28 | 47.08285 | -119.17838 | 9808 ft | 262 kts | 55° |
| 2026-04-22 22:29 | 47.09203 | -119.15552 | 9799 ft | 259 kts | 54° |
| 2026-04-22 22:29 | 47.10112 | -119.13287 | 9797 ft | 256 kts | 54° |
| 2026-04-22 22:29 | 47.11006 | -119.11054 | 9807 ft | 253 kts | 54° |
| 2026-04-22 22:29 | 47.11893 | -119.08835 | 9806 ft | 250 kts | 54° |
| 2026-04-22 22:30 | 47.12770 | -119.06638 | 9807 ft | 248 kts | 54° |
| 2026-04-22 22:30 | 47.13638 | -119.04462 | 9790 ft | 246 kts | 54° |
| 2026-04-22 22:30 | 47.14500 | -119.02302 | 9792 ft | 245 kts | 54° |
| 2026-04-22 22:30 | 47.15362 | -119.00138 | 9793 ft | 245 kts | 54° |
| 2026-04-22 22:31 | 47.16224 | -118.97975 | 9785 ft | 245 kts | 54° |
| 2026-04-22 22:31 | 47.17079 | -118.95825 | 9786 ft | 243 kts | 54° |
| 2026-04-22 22:31 | 47.17933 | -118.93676 | 9787 ft | 242 kts | 54° |
| 2026-04-22 22:31 | 47.18779 | -118.91543 | 9781 ft | 241 kts | 54° |
| 2026-04-22 22:32 | 47.19624 | -118.89412 | 9784 ft | 241 kts | 54° |
| 2026-04-22 22:32 | 47.20454 | -118.87318 | 9783 ft | 240 kts | 54° |
| 2026-04-22 22:32 | 47.21309 | -118.85165 | 9800 ft | 247 kts | 54° |
| 2026-04-22 22:32 | 47.22201 | -118.82925 | 9781 ft | 255 kts | 54° |
| 2026-04-22 22:33 | 47.23107 | -118.80645 | 9782 ft | 260 kts | 54° |
| 2026-04-22 22:33 | 47.24028 | -118.78319 | 9771 ft | 265 kts | 54° |
| 2026-04-22 22:33 | 47.24962 | -118.75955 | 9775 ft | 269 kts | 54° |
| 2026-04-22 22:33 | 47.25891 | -118.73595 | 9773 ft | 272 kts | 54° |
| 2026-04-22 22:34 | 47.26856 | -118.71140 | 9777 ft | 275 kts | 54° |
| 2026-04-22 22:34 | 47.27821 | -118.68683 | 9775 ft | 278 kts | 54° |
| 2026-04-22 22:34 | 47.28781 | -118.66239 | 9775 ft | 280 kts | 54° |
| 2026-04-22 22:34 | 47.29771 | -118.63714 | 9771 ft | 282 kts | 54° |
| 2026-04-22 22:35 | 47.30757 | -118.61200 | 9764 ft | 284 kts | 54° |
| 2026-04-22 22:35 | 47.31734 | -118.58706 | 9769 ft | 285 kts | 54° |
| 2026-04-22 22:35 | 47.32740 | -118.56138 | 9766 ft | 287 kts | 54° |
| 2026-04-22 22:35 | 47.33742 | -118.53576 | 9765 ft | 288 kts | 55° |
| 2026-04-22 22:36 | 47.34732 | -118.51043 | 9771 ft | 289 kts | 54° |
| 2026-04-22 22:36 | 47.35751 | -118.48433 | 9762 ft | 291 kts | 54° |
| 2026-04-22 22:36 | 47.36751 | -118.45871 | 9761 ft | 292 kts | 54° |
| 2026-04-22 22:36 | 47.37764 | -118.43273 | 9761 ft | 294 kts | 54° |
| 2026-04-22 22:37 | 47.38801 | -118.40618 | 9553 ft | 301 kts | 54° |
| 2026-04-22 22:37 | 47.39862 | -118.37903 | 9279 ft | 309 kts | 55° |
| 2026-04-22 22:37 | 47.40939 | -118.35138 | 9116 ft | 312 kts | 55° |
| 2026-04-22 22:37 | 47.42020 | -118.32339 | 8962 ft | 315 kts | 57° |
| 2026-04-22 22:38 | 47.42909 | -118.29334 | 8716 ft | 323 kts | 63° |
| 2026-04-22 22:38 | 47.43735 | -118.26235 | 8463 ft | 328 kts | 64° |
| 2026-04-22 22:38 | 47.44527 | -118.23043 | 8194 ft | 333 kts | 68° |
| 2026-04-22 22:38 | 47.45024 | -118.19671 | 7965 ft | 339 kts | 76° |
| 2026-04-22 22:39 | 47.45700 | -118.16380 | 7789 ft | 332 kts | 61° |
| 2026-04-22 22:39 | 47.46648 | -118.13308 | 7736 ft | 328 kts | 60° |
| 2026-04-22 22:39 | 47.47563 | -118.10281 | 7674 ft | 326 kts | 61° |
| 2026-04-22 22:39 | 47.48448 | -118.07160 | 7639 ft | 323 kts | 62° |
| 2026-04-22 22:40 | 47.49264 | -118.04131 | 7612 ft | 321 kts | 63° |
| 2026-04-22 22:40 | 47.50067 | -118.01057 | 7595 ft | 320 kts | 64° |
| 2026-04-22 22:40 | 47.50854 | -117.97987 | 7556 ft | 318 kts | 64° |
| 2026-04-22 22:40 | 47.51629 | -117.94928 | 7537 ft | 317 kts | 64° |
| 2026-04-22 22:41 | 47.52290 | -117.91776 | 7489 ft | 321 kts | 73° |
| 2026-04-22 22:41 | 47.52532 | -117.88511 | 7388 ft | 326 kts | 82° |
| 2026-04-22 22:41 | 47.52624 | -117.85079 | 6915 ft | 341 kts | 83° |
| 2026-04-22 22:41 | 47.52823 | -117.81539 | 6433 ft | 347 kts | 77° |
| 2026-04-22 22:42 | 47.53272 | -117.78008 | 6027 ft | 350 kts | 73° |
| 2026-04-22 22:42 | 47.53947 | -117.74566 | 5762 ft | 347 kts | 66° |
| 2026-04-22 22:42 | 47.54999 | -117.71394 | 5510 ft | 344 kts | 55° |
| 2026-04-22 22:42 | 47.56258 | -117.68365 | 5096 ft | 346 kts | 57° |
| 2026-04-22 22:43 | 47.57385 | -117.65224 | 4660 ft | 342 kts | 60° |
| 2026-04-22 22:43 | 47.58496 | -117.62175 | 4221 ft | 331 kts | 59° |
| 2026-04-22 22:43 | 47.59240 | -117.60230 | 3916 ft | 324 kts | 59° |
| 2026-04-22 22:43 | 47.60266 | -117.57380 | 3489 ft | 299 kts | 65° |
| 2026-04-22 22:44 | 47.60967 | -117.54632 | 3006 ft | 273 kts | 70° |
| 2026-04-22 22:44 | 47.61781 | -117.52172 | 2756 ft | 261 kts | 60° |
| 2026-04-22 22:44 | 47.62727 | -117.49822 | 2846 ft | 277 kts | 59° |
| 2026-04-22 22:44 | 47.63711 | -117.47274 | 3002 ft | 283 kts | 55° |
| 2026-04-22 22:45 | 47.65094 | -117.45705 | 3610 ft | 226 kts | 9° |
| 2026-04-22 22:45 | 47.66391 | -117.46024 | 3974 ft | 169 kts | 309° |
| 2026-04-22 22:45 | 47.66665 | -117.47449 | 3894 ft | 155 kts | 248° |
| 2026-04-22 22:45 | 47.65732 | -117.48629 | 3931 ft | 192 kts | 205° |
| 2026-04-22 22:46 | 47.64501 | -117.49496 | 3094 ft | 205 kts | 219° |
| 2026-04-22 22:46 | 47.63570 | -117.51015 | 2743 ft | 193 kts | 228° |
| 2026-04-22 22:46 | 47.62690 | -117.52505 | 2414 ft | 182 kts | 225° |
| 2026-04-22 22:46 | 47.61881 | -117.53693 | 2371 ft | 137 kts | 224° |
| 2026-04-22 22:47 | 47.61353 | -117.54443 | 2369 ft | 90 kts | 225° |
| 2026-04-22 22:47 | 47.61052 | -117.54919 | 2370 ft | 16 kts | 226° |
| 2026-04-22 22:47 | 47.61042 | -117.54935 | 2370 ft | 2 kts | 228° |
| 2026-04-22 22:47 | 47.61034 | -117.54957 | 2370 ft | 3 kts | 249° |
| 2026-04-22 22:48 | 47.61033 | -117.55009 | 2370 ft | 9 kts | 272° |
| 2026-04-22 22:48 | 47.61070 | -117.55077 | 2369 ft | 12 kts | 320° |
| 2026-04-22 22:48 | 47.61148 | -117.55164 | 2369 ft | 13 kts | 345° |
| 2026-04-22 22:48 | 47.61188 | -117.55147 | 2369 ft | 4 kts | 46° |
| 2026-04-22 22:49 | 47.61227 | -117.55087 | 2369 ft | 14 kts | 46° |
| 2026-04-22 22:49 | 47.61320 | -117.54947 | 2370 ft | 23 kts | 45° |
| 2026-04-22 22:49 | 47.61441 | -117.54765 | 2370 ft | 26 kts | 45° |
| 2026-04-22 22:49 | 47.61569 | -117.54571 | 2370 ft | 28 kts | 46° |
| 2026-04-22 22:50 | 47.61709 | -117.54360 | 2372 ft | 29 kts | 45° |
| 2026-04-22 22:50 | 47.61813 | -117.54206 | 2371 ft | 0 kts | 45° |